sensor_id;sensor_type;location;lat;lon;timestamp;temperature;humidity
15262;DHT22;7733;51.554;13.590;2024-01-06T00:01:49;4.00;99.90
15262;DHT22;7733;51.554;13.590;2024-01-06T00:04:15;4.00;99.90
15262;DHT22;7733;51.554;13.590;2024-01-06T00:06:40;3.80;99.90
15262;DHT22;7733;51.554;13.590;2024-01-06T00:09:06;3.60;99.90
15262;DHT22;7733;51.554;13.590;2024-01-06T00:11:32;3.60;99.90
15262;DHT22;7733;51.554;13.590;2024-01-06T00:13:58;3.60;99.90
15262;DHT22;7733;51.554;13.590;2024-01-06T00:16:24;3.70;99.90
15262;DHT22;7733;51.554;13.590;2024-01-06T00:18:50;3.70;99.90
15262;DHT22;7733;51.554;13.590;2024-01-06T00:21:15;3.70;99.90
15262;DHT22;7733;51.554;13.590;2024-01-06T00:23:41;3.60;99.90
15262;DHT22;7733;51.554;13.590;2024-01-06T00:26:07;3.60;99.90
15262;DHT22;7733;51.554;13.590;2024-01-06T00:28:37;3.60;99.90
15262;DHT22;7733;51.554;13.590;2024-01-06T00:31:06;3.60;99.90
15262;DHT22;7733;51.554;13.590;2024-01-06T00:33:31;3.50;99.90
15262;DHT22;7733;51.554;13.590;2024-01-06T00:35:57;3.40;99.90
15262;DHT22;7733;51.554;13.590;2024-01-06T00:38:23;3.40;99.90
15262;DHT22;7733;51.554;13.590;2024-01-06T00:40:48;3.40;99.90
15262;DHT22;7733;51.554;13.590;2024-01-06T00:43:14;3.40;99.90
15262;DHT22;7733;51.554;13.590;2024-01-06T00:45:40;3.40;99.90
15262;DHT22;7733;51.554;13.590;2024-01-06T00:48:06;3.40;99.90
15262;DHT22;7733;51.554;13.590;2024-01-06T00:50:32;3.50;99.90
15262;DHT22;7733;51.554;13.590;2024-01-06T00:52:57;3.50;99.90
15262;DHT22;7733;51.554;13.590;2024-01-06T00:55:23;3.50;99.90
15262;DHT22;7733;51.554;13.590;2024-01-06T00:57:50;3.40;99.90
15262;DHT22;7733;51.554;13.590;2024-01-06T01:00:16;3.30;99.90
15262;DHT22;7733;51.554;13.590;2024-01-06T01:02:41;3.40;99.90
15262;DHT22;7733;51.554;13.590;2024-01-06T01:05:07;3.40;99.90
15262;DHT22;7733;51.554;13.590;2024-01-06T01:07:33;3.30;99.90
15262;DHT22;7733;51.554;13.590;2024-01-06T01:09:59;3.20;99.90
15262;DHT22;7733;51.554;13.590;2024-01-06T01:12:25;3.10;99.90
15262;DHT22;7733;51.554;13.590;2024-01-06T01:14:51;2.90;99.90
15262;DHT22;7733;51.554;13.590;2024-01-06T01:17:18;3.00;99.90
15262;DHT22;7733;51.554;13.590;2024-01-06T01:19:43;3.00;99.90
15262;DHT22;7733;51.554;13.590;2024-01-06T01:22:10;3.10;99.90
15262;DHT22;7733;51.554;13.590;2024-01-06T01:24:36;3.10;99.90
15262;DHT22;7733;51.554;13.590;2024-01-06T01:27:01;3.10;99.90
15262;DHT22;7733;51.554;13.590;2024-01-06T01:29:27;3.10;99.90
15262;DHT22;7733;51.554;13.590;2024-01-06T01:31:53;3.10;99.90
15262;DHT22;7733;51.554;13.590;2024-01-06T01:34:19;3.10;99.90
15262;DHT22;7733;51.554;13.590;2024-01-06T01:36:45;3.10;99.90
15262;DHT22;7733;51.554;13.590;2024-01-06T01:39:10;3.00;99.90
15262;DHT22;7733;51.554;13.590;2024-01-06T01:41:36;3.00;99.90
15262;DHT22;7733;51.554;13.590;2024-01-06T01:44:02;3.00;99.90
15262;DHT22;7733;51.554;13.590;2024-01-06T01:46:29;2.90;99.90
15262;DHT22;7733;51.554;13.590;2024-01-06T01:48:57;2.90;99.90
15262;DHT22;7733;51.554;13.590;2024-01-06T01:51:28;2.90;99.90
15262;DHT22;7733;51.554;13.590;2024-01-06T01:53:57;2.80;99.90
15262;DHT22;7733;51.554;13.590;2024-01-06T01:56:24;2.80;99.90
15262;DHT22;7733;51.554;13.590;2024-01-06T01:58:51;2.80;99.90
15262;DHT22;7733;51.554;13.590;2024-01-06T02:01:17;2.90;99.90
15262;DHT22;7733;51.554;13.590;2024-01-06T02:03:43;2.80;99.90
15262;DHT22;7733;51.554;13.590;2024-01-06T02:06:10;2.80;99.90
15262;DHT22;7733;51.554;13.590;2024-01-06T02:08:36;2.90;99.90
15262;DHT22;7733;51.554;13.590;2024-01-06T02:11:03;2.80;99.90
15262;DHT22;7733;51.554;13.590;2024-01-06T02:13:34;2.80;99.90
15262;DHT22;7733;51.554;13.590;2024-01-06T02:16:02;2.70;99.90
15262;DHT22;7733;51.554;13.590;2024-01-06T02:18:33;2.70;99.90
15262;DHT22;7733;51.554;13.590;2024-01-06T02:21:00;2.70;99.90
15262;DHT22;7733;51.554;13.590;2024-01-06T02:23:28;2.70;99.90
15262;DHT22;7733;51.554;13.590;2024-01-06T02:25:55;2.70;99.90
15262;DHT22;7733;51.554;13.590;2024-01-06T02:28:21;2.70;99.90
15262;DHT22;7733;51.554;13.590;2024-01-06T02:30:47;2.60;99.90
15262;DHT22;7733;51.554;13.590;2024-01-06T02:33:14;2.50;99.90
15262;DHT22;7733;51.554;13.590;2024-01-06T02:35:40;2.50;99.90
15262;DHT22;7733;51.554;13.590;2024-01-06T02:38:06;2.50;99.90
15262;DHT22;7733;51.554;13.590;2024-01-06T02:40:32;2.40;99.90
15262;DHT22;7733;51.554;13.590;2024-01-06T02:42:58;2.30;99.90
15262;DHT22;7733;51.554;13.590;2024-01-06T02:45:24;2.20;99.90
15262;DHT22;7733;51.554;13.590;2024-01-06T02:47:50;2.30;99.90
15262;DHT22;7733;51.554;13.590;2024-01-06T02:50:16;2.30;99.90
15262;DHT22;7733;51.554;13.590;2024-01-06T02:52:43;2.20;99.90
15262;DHT22;7733;51.554;13.590;2024-01-06T02:55:10;2.20;99.90
15262;DHT22;7733;51.554;13.590;2024-01-06T02:57:37;2.10;99.90
15262;DHT22;7733;51.554;13.590;2024-01-06T03:00:03;2.00;99.90
15262;DHT22;7733;51.554;13.590;2024-01-06T03:02:30;2.00;99.90
15262;DHT22;7733;51.554;13.590;2024-01-06T03:04:55;1.90;99.90
15262;DHT22;7733;51.554;13.590;2024-01-06T03:07:21;1.70;99.90
15262;DHT22;7733;51.554;13.590;2024-01-06T03:09:47;1.80;99.90
15262;DHT22;7733;51.554;13.590;2024-01-06T03:12:13;1.90;99.90
15262;DHT22;7733;51.554;13.590;2024-01-06T03:14:38;1.90;99.90
15262;DHT22;7733;51.554;13.590;2024-01-06T03:17:04;1.90;99.90
15262;DHT22;7733;51.554;13.590;2024-01-06T03:19:33;1.90;99.90
15262;DHT22;7733;51.554;13.590;2024-01-06T03:21:58;1.90;99.90
15262;DHT22;7733;51.554;13.590;2024-01-06T03:24:26;2.00;99.90
15262;DHT22;7733;51.554;13.590;2024-01-06T03:26:52;1.90;99.90
15262;DHT22;7733;51.554;13.590;2024-01-06T03:29:18;1.80;99.90
15262;DHT22;7733;51.554;13.590;2024-01-06T03:31:44;1.60;99.90
15262;DHT22;7733;51.554;13.590;2024-01-06T03:34:11;1.60;99.90
15262;DHT22;7733;51.554;13.590;2024-01-06T03:36:37;1.60;99.90
15262;DHT22;7733;51.554;13.590;2024-01-06T03:39:04;1.60;99.90
15262;DHT22;7733;51.554;13.590;2024-01-06T03:41:29;1.80;99.90
15262;DHT22;7733;51.554;13.590;2024-01-06T03:43:55;1.80;99.90
15262;DHT22;7733;51.554;13.590;2024-01-06T03:46:22;1.80;99.90
15262;DHT22;7733;51.554;13.590;2024-01-06T03:48:48;1.80;99.90
15262;DHT22;7733;51.554;13.590;2024-01-06T03:51:14;1.60;99.90
15262;DHT22;7733;51.554;13.590;2024-01-06T03:53:40;1.70;99.90
15262;DHT22;7733;51.554;13.590;2024-01-06T03:56:06;1.70;99.90
15262;DHT22;7733;51.554;13.590;2024-01-06T03:58:32;1.80;99.90
15262;DHT22;7733;51.554;13.590;2024-01-06T04:00:58;1.80;99.90
15262;DHT22;7733;51.554;13.590;2024-01-06T04:03:24;1.80;99.90
15262;DHT22;7733;51.554;13.590;2024-01-06T04:05:50;1.90;99.90
15262;DHT22;7733;51.554;13.590;2024-01-06T04:08:16;1.90;99.90
15262;DHT22;7733;51.554;13.590;2024-01-06T04:10:43;1.90;99.90
15262;DHT22;7733;51.554;13.590;2024-01-06T04:13:10;1.90;99.90
15262;DHT22;7733;51.554;13.590;2024-01-06T04:15:36;1.90;99.90
15262;DHT22;7733;51.554;13.590;2024-01-06T04:18:03;1.80;99.90
15262;DHT22;7733;51.554;13.590;2024-01-06T04:20:33;1.60;99.90
15262;DHT22;7733;51.554;13.590;2024-01-06T04:22:59;1.80;99.90
15262;DHT22;7733;51.554;13.590;2024-01-06T04:25:24;1.90;99.90
15262;DHT22;7733;51.554;13.590;2024-01-06T04:27:50;2.00;99.90
15262;DHT22;7733;51.554;13.590;2024-01-06T04:30:17;2.00;99.90
15262;DHT22;7733;51.554;13.590;2024-01-06T04:32:43;2.00;99.90
15262;DHT22;7733;51.554;13.590;2024-01-06T04:35:10;1.90;99.90
15262;DHT22;7733;51.554;13.590;2024-01-06T04:37:36;2.00;99.90
15262;DHT22;7733;51.554;13.590;2024-01-06T04:40:02;2.10;99.90
15262;DHT22;7733;51.554;13.590;2024-01-06T04:42:29;2.00;99.90
15262;DHT22;7733;51.554;13.590;2024-01-06T04:44:55;2.10;99.90
15262;DHT22;7733;51.554;13.590;2024-01-06T04:47:20;1.90;99.90
15262;DHT22;7733;51.554;13.590;2024-01-06T04:49:46;1.60;99.90
15262;DHT22;7733;51.554;13.590;2024-01-06T04:52:12;1.70;99.90
15262;DHT22;7733;51.554;13.590;2024-01-06T04:54:38;1.90;99.90
15262;DHT22;7733;51.554;13.590;2024-01-06T04:57:04;1.90;99.90
15262;DHT22;7733;51.554;13.590;2024-01-06T04:59:30;1.70;99.90
15262;DHT22;7733;51.554;13.590;2024-01-06T05:01:57;1.70;99.90
15262;DHT22;7733;51.554;13.590;2024-01-06T05:04:24;1.70;99.90
15262;DHT22;7733;51.554;13.590;2024-01-06T05:06:51;1.80;99.90
15262;DHT22;7733;51.554;13.590;2024-01-06T05:09:17;1.70;99.90
15262;DHT22;7733;51.554;13.590;2024-01-06T05:11:44;1.60;99.90
15262;DHT22;7733;51.554;13.590;2024-01-06T05:14:10;1.60;99.90
15262;DHT22;7733;51.554;13.590;2024-01-06T05:16:36;1.70;99.90
15262;DHT22;7733;51.554;13.590;2024-01-06T05:19:01;1.70;99.90
15262;DHT22;7733;51.554;13.590;2024-01-06T05:21:28;1.70;99.90
15262;DHT22;7733;51.554;13.590;2024-01-06T05:23:54;1.60;99.90
15262;DHT22;7733;51.554;13.590;2024-01-06T05:26:19;1.60;99.90
15262;DHT22;7733;51.554;13.590;2024-01-06T05:28:45;1.60;99.90
15262;DHT22;7733;51.554;13.590;2024-01-06T05:31:11;1.70;99.90
15262;DHT22;7733;51.554;13.590;2024-01-06T05:33:37;1.80;99.90
15262;DHT22;7733;51.554;13.590;2024-01-06T05:36:03;1.80;99.90
15262;DHT22;7733;51.554;13.590;2024-01-06T05:38:29;1.90;99.90
15262;DHT22;7733;51.554;13.590;2024-01-06T05:40:55;1.90;99.90
15262;DHT22;7733;51.554;13.590;2024-01-06T05:43:21;1.80;99.90
15262;DHT22;7733;51.554;13.590;2024-01-06T05:45:47;1.70;99.90
15262;DHT22;7733;51.554;13.590;2024-01-06T05:48:12;1.80;99.90
15262;DHT22;7733;51.554;13.590;2024-01-06T05:50:39;1.80;99.90
15262;DHT22;7733;51.554;13.590;2024-01-06T05:53:05;1.90;99.90
15262;DHT22;7733;51.554;13.590;2024-01-06T05:55:32;1.90;99.90
15262;DHT22;7733;51.554;13.590;2024-01-06T05:57:58;1.90;99.90
15262;DHT22;7733;51.554;13.590;2024-01-06T06:00:23;1.90;99.90
15262;DHT22;7733;51.554;13.590;2024-01-06T06:02:49;1.90;99.90
15262;DHT22;7733;51.554;13.590;2024-01-06T06:05:15;1.80;99.90
15262;DHT22;7733;51.554;13.590;2024-01-06T06:07:42;1.80;99.90
15262;DHT22;7733;51.554;13.590;2024-01-06T06:10:10;1.90;99.90
15262;DHT22;7733;51.554;13.590;2024-01-06T06:12:37;1.90;99.90
15262;DHT22;7733;51.554;13.590;2024-01-06T06:15:04;2.00;99.90
15262;DHT22;7733;51.554;13.590;2024-01-06T06:17:32;2.00;99.90
15262;DHT22;7733;51.554;13.590;2024-01-06T06:19:58;2.00;99.90
15262;DHT22;7733;51.554;13.590;2024-01-06T06:22:25;2.00;99.90
15262;DHT22;7733;51.554;13.590;2024-01-06T06:24:58;2.00;99.90
15262;DHT22;7733;51.554;13.590;2024-01-06T06:27:25;2.00;99.90
15262;DHT22;7733;51.554;13.590;2024-01-06T06:29:52;2.10;99.90
15262;DHT22;7733;51.554;13.590;2024-01-06T06:32:19;2.20;99.90
15262;DHT22;7733;51.554;13.590;2024-01-06T06:34:45;2.00;99.90
15262;DHT22;7733;51.554;13.590;2024-01-06T06:37:11;1.90;99.90
15262;DHT22;7733;51.554;13.590;2024-01-06T06:39:36;1.80;99.90
15262;DHT22;7733;51.554;13.590;2024-01-06T06:42:03;1.80;99.90
15262;DHT22;7733;51.554;13.590;2024-01-06T06:44:29;1.90;99.90
15262;DHT22;7733;51.554;13.590;2024-01-06T06:46:55;1.90;99.90
15262;DHT22;7733;51.554;13.590;2024-01-06T06:49:22;1.90;99.90
15262;DHT22;7733;51.554;13.590;2024-01-06T06:51:48;1.90;99.90
15262;DHT22;7733;51.554;13.590;2024-01-06T06:54:14;2.00;99.90
15262;DHT22;7733;51.554;13.590;2024-01-06T06:56:43;2.00;99.90
15262;DHT22;7733;51.554;13.590;2024-01-06T06:59:09;2.00;99.90
15262;DHT22;7733;51.554;13.590;2024-01-06T07:01:35;2.00;99.90
15262;DHT22;7733;51.554;13.590;2024-01-06T07:04:04;1.90;99.90
15262;DHT22;7733;51.554;13.590;2024-01-06T07:06:30;1.90;99.90
15262;DHT22;7733;51.554;13.590;2024-01-06T07:08:56;1.90;99.90
15262;DHT22;7733;51.554;13.590;2024-01-06T07:11:23;2.10;99.90
15262;DHT22;7733;51.554;13.590;2024-01-06T07:13:49;2.10;99.90
15262;DHT22;7733;51.554;13.590;2024-01-06T07:16:16;2.20;99.90
15262;DHT22;7733;51.554;13.590;2024-01-06T07:18:41;2.20;99.90
15262;DHT22;7733;51.554;13.590;2024-01-06T07:21:07;2.20;99.90
15262;DHT22;7733;51.554;13.590;2024-01-06T07:23:33;2.20;99.90
15262;DHT22;7733;51.554;13.590;2024-01-06T07:25:59;2.20;99.90
15262;DHT22;7733;51.554;13.590;2024-01-06T07:28:25;2.20;99.90
15262;DHT22;7733;51.554;13.590;2024-01-06T07:30:51;2.20;99.90
15262;DHT22;7733;51.554;13.590;2024-01-06T07:33:17;2.30;99.90
15262;DHT22;7733;51.554;13.590;2024-01-06T07:35:43;2.30;99.90
15262;DHT22;7733;51.554;13.590;2024-01-06T07:38:12;2.20;99.90
15262;DHT22;7733;51.554;13.590;2024-01-06T07:40:39;2.30;99.90
15262;DHT22;7733;51.554;13.590;2024-01-06T07:43:05;2.30;99.90
15262;DHT22;7733;51.554;13.590;2024-01-06T07:45:32;2.30;99.90
15262;DHT22;7733;51.554;13.590;2024-01-06T07:47:58;2.20;99.90
15262;DHT22;7733;51.554;13.590;2024-01-06T07:50:24;2.20;99.90
15262;DHT22;7733;51.554;13.590;2024-01-06T07:52:50;2.30;99.90
15262;DHT22;7733;51.554;13.590;2024-01-06T07:55:17;2.30;99.90
15262;DHT22;7733;51.554;13.590;2024-01-06T07:57:44;2.20;99.90
15262;DHT22;7733;51.554;13.590;2024-01-06T08:00:10;2.30;99.90
15262;DHT22;7733;51.554;13.590;2024-01-06T08:02:40;2.40;99.90
15262;DHT22;7733;51.554;13.590;2024-01-06T08:05:06;2.30;99.90
15262;DHT22;7733;51.554;13.590;2024-01-06T08:07:33;2.20;99.90
15262;DHT22;7733;51.554;13.590;2024-01-06T08:09:58;2.30;99.90
15262;DHT22;7733;51.554;13.590;2024-01-06T08:12:24;2.30;99.90
15262;DHT22;7733;51.554;13.590;2024-01-06T08:14:50;2.40;99.90
15262;DHT22;7733;51.554;13.590;2024-01-06T08:17:16;2.30;99.90
15262;DHT22;7733;51.554;13.590;2024-01-06T08:19:42;2.30;99.90
15262;DHT22;7733;51.554;13.590;2024-01-06T08:22:08;2.30;99.90
15262;DHT22;7733;51.554;13.590;2024-01-06T08:24:33;2.40;99.90
15262;DHT22;7733;51.554;13.590;2024-01-06T08:26:59;2.40;99.90
15262;DHT22;7733;51.554;13.590;2024-01-06T08:29:25;2.40;99.90
15262;DHT22;7733;51.554;13.590;2024-01-06T08:31:51;2.50;99.90
15262;DHT22;7733;51.554;13.590;2024-01-06T08:34:18;2.50;99.90
15262;DHT22;7733;51.554;13.590;2024-01-06T08:36:44;2.40;99.90
15262;DHT22;7733;51.554;13.590;2024-01-06T08:39:11;2.50;99.90
15262;DHT22;7733;51.554;13.590;2024-01-06T08:41:38;2.50;99.90
15262;DHT22;7733;51.554;13.590;2024-01-06T08:44:04;2.50;99.90
15262;DHT22;7733;51.554;13.590;2024-01-06T08:46:29;2.60;99.90
15262;DHT22;7733;51.554;13.590;2024-01-06T08:48:56;2.60;99.90
15262;DHT22;7733;51.554;13.590;2024-01-06T08:51:22;2.60;99.90
15262;DHT22;7733;51.554;13.590;2024-01-06T08:53:49;2.60;99.90
15262;DHT22;7733;51.554;13.590;2024-01-06T08:56:15;2.60;99.90
15262;DHT22;7733;51.554;13.590;2024-01-06T08:58:43;2.50;99.90
15262;DHT22;7733;51.554;13.590;2024-01-06T09:01:09;2.50;99.90
15262;DHT22;7733;51.554;13.590;2024-01-06T09:03:36;2.50;99.90
15262;DHT22;7733;51.554;13.590;2024-01-06T09:06:01;2.50;99.90
15262;DHT22;7733;51.554;13.590;2024-01-06T09:08:27;2.60;99.90
15262;DHT22;7733;51.554;13.590;2024-01-06T09:10:53;2.60;99.90
15262;DHT22;7733;51.554;13.590;2024-01-06T09:13:24;2.60;99.90
15262;DHT22;7733;51.554;13.590;2024-01-06T09:15:51;2.60;99.90
15262;DHT22;7733;51.554;13.590;2024-01-06T09:18:17;2.50;99.90
15262;DHT22;7733;51.554;13.590;2024-01-06T09:20:42;2.60;99.90
15262;DHT22;7733;51.554;13.590;2024-01-06T09:23:08;2.50;99.90
15262;DHT22;7733;51.554;13.590;2024-01-06T09:25:35;2.50;99.90
15262;DHT22;7733;51.554;13.590;2024-01-06T09:28:01;2.50;99.90
15262;DHT22;7733;51.554;13.590;2024-01-06T09:30:27;2.50;99.90
15262;DHT22;7733;51.554;13.590;2024-01-06T09:32:53;2.60;99.90
15262;DHT22;7733;51.554;13.590;2024-01-06T09:35:18;2.70;99.90
15262;DHT22;7733;51.554;13.590;2024-01-06T09:37:44;2.70;99.90
15262;DHT22;7733;51.554;13.590;2024-01-06T09:40:12;2.80;99.90
15262;DHT22;7733;51.554;13.590;2024-01-06T09:42:39;2.90;99.90
15262;DHT22;7733;51.554;13.590;2024-01-06T09:45:06;2.90;99.90
15262;DHT22;7733;51.554;13.590;2024-01-06T09:47:34;2.80;99.90
15262;DHT22;7733;51.554;13.590;2024-01-06T09:50:02;2.80;99.90
15262;DHT22;7733;51.554;13.590;2024-01-06T09:52:32;2.90;99.90
15262;DHT22;7733;51.554;13.590;2024-01-06T09:55:00;3.00;99.90
15262;DHT22;7733;51.554;13.590;2024-01-06T09:57:28;2.80;99.90
15262;DHT22;7733;51.554;13.590;2024-01-06T09:59:55;2.80;99.90
15262;DHT22;7733;51.554;13.590;2024-01-06T10:02:21;2.80;99.90
15262;DHT22;7733;51.554;13.590;2024-01-06T10:04:48;2.80;99.90
15262;DHT22;7733;51.554;13.590;2024-01-06T10:07:14;2.90;99.90
15262;DHT22;7733;51.554;13.590;2024-01-06T10:09:41;2.90;99.90
15262;DHT22;7733;51.554;13.590;2024-01-06T10:12:08;2.90;99.90
15262;DHT22;7733;51.554;13.590;2024-01-06T10:14:35;2.90;99.90
15262;DHT22;7733;51.554;13.590;2024-01-06T10:17:01;2.90;99.90
15262;DHT22;7733;51.554;13.590;2024-01-06T10:19:27;2.90;99.90
15262;DHT22;7733;51.554;13.590;2024-01-06T10:21:54;2.90;99.90
15262;DHT22;7733;51.554;13.590;2024-01-06T10:24:20;3.00;99.90
15262;DHT22;7733;51.554;13.590;2024-01-06T10:26:46;2.90;99.90
15262;DHT22;7733;51.554;13.590;2024-01-06T10:29:13;2.90;99.90
15262;DHT22;7733;51.554;13.590;2024-01-06T10:31:39;3.00;99.90
15262;DHT22;7733;51.554;13.590;2024-01-06T10:34:05;2.90;99.90
15262;DHT22;7733;51.554;13.590;2024-01-06T10:36:31;3.00;99.90
15262;DHT22;7733;51.554;13.590;2024-01-06T10:38:57;3.00;99.90
15262;DHT22;7733;51.554;13.590;2024-01-06T10:41:24;2.90;99.90
15262;DHT22;7733;51.554;13.590;2024-01-06T10:43:51;2.80;99.90
15262;DHT22;7733;51.554;13.590;2024-01-06T10:46:19;2.90;99.90
15262;DHT22;7733;51.554;13.590;2024-01-06T10:48:46;3.00;99.90
15262;DHT22;7733;51.554;13.590;2024-01-06T10:51:13;3.00;99.90
15262;DHT22;7733;51.554;13.590;2024-01-06T10:53:41;3.00;99.90
15262;DHT22;7733;51.554;13.590;2024-01-06T10:56:07;3.10;99.90
15262;DHT22;7733;51.554;13.590;2024-01-06T10:58:36;2.90;99.90
15262;DHT22;7733;51.554;13.590;2024-01-06T11:01:08;3.00;99.90
15262;DHT22;7733;51.554;13.590;2024-01-06T11:03:37;3.10;99.90
15262;DHT22;7733;51.554;13.590;2024-01-06T11:06:05;3.00;99.90
15262;DHT22;7733;51.554;13.590;2024-01-06T11:08:40;3.10;99.90
15262;DHT22;7733;51.554;13.590;2024-01-06T11:11:18;3.00;99.90
15262;DHT22;7733;51.554;13.590;2024-01-06T11:13:46;3.10;99.90
15262;DHT22;7733;51.554;13.590;2024-01-06T11:16:37;3.00;99.90
15262;DHT22;7733;51.554;13.590;2024-01-06T11:19:08;3.00;99.90
15262;DHT22;7733;51.554;13.590;2024-01-06T11:25:07;3.00;99.90
15262;DHT22;7733;51.554;13.590;2024-01-06T11:27:34;3.00;99.90
15262;DHT22;7733;51.554;13.590;2024-01-06T11:30:03;3.00;99.90
15262;DHT22;7733;51.554;13.590;2024-01-06T11:35:07;3.10;99.90
15262;DHT22;7733;51.554;13.590;2024-01-06T11:37:56;3.00;99.90
15262;DHT22;7733;51.554;13.590;2024-01-06T11:40:34;2.90;99.90
15262;DHT22;7733;51.554;13.590;2024-01-06T11:45:36;3.00;99.90
15262;DHT22;7733;51.554;13.590;2024-01-06T11:48:10;3.00;99.90
15262;DHT22;7733;51.554;13.590;2024-01-06T11:50:39;3.00;99.90
15262;DHT22;7733;51.554;13.590;2024-01-06T11:53:07;3.00;99.90
15262;DHT22;7733;51.554;13.590;2024-01-06T11:55:35;3.00;99.90
15262;DHT22;7733;51.554;13.590;2024-01-06T11:58:03;3.10;99.90
15262;DHT22;7733;51.554;13.590;2024-01-06T12:00:31;3.10;99.90
15262;DHT22;7733;51.554;13.590;2024-01-06T12:02:59;3.10;99.90
15262;DHT22;7733;51.554;13.590;2024-01-06T12:05:27;2.90;99.90
15262;DHT22;7733;51.554;13.590;2024-01-06T12:08:01;2.90;99.90
15262;DHT22;7733;51.554;13.590;2024-01-06T12:10:31;2.80;99.90
15262;DHT22;7733;51.554;13.590;2024-01-06T12:13:03;2.90;99.90
15262;DHT22;7733;51.554;13.590;2024-01-06T12:15:32;2.80;99.90
15262;DHT22;7733;51.554;13.590;2024-01-06T12:17:58;2.70;99.90
15262;DHT22;7733;51.554;13.590;2024-01-06T12:20:25;2.70;99.90
15262;DHT22;7733;51.554;13.590;2024-01-06T12:22:52;2.70;99.90
15262;DHT22;7733;51.554;13.590;2024-01-06T12:25:21;2.80;99.90
15262;DHT22;7733;51.554;13.590;2024-01-06T12:27:48;2.80;99.90
15262;DHT22;7733;51.554;13.590;2024-01-06T12:30:18;2.80;99.90
15262;DHT22;7733;51.554;13.590;2024-01-06T12:32:47;2.80;99.90
15262;DHT22;7733;51.554;13.590;2024-01-06T12:35:14;2.90;99.90
15262;DHT22;7733;51.554;13.590;2024-01-06T12:37:44;2.90;99.90
15262;DHT22;7733;51.554;13.590;2024-01-06T12:40:12;2.80;99.90
15262;DHT22;7733;51.554;13.590;2024-01-06T12:42:39;2.70;99.90
15262;DHT22;7733;51.554;13.590;2024-01-06T12:45:06;2.70;99.90
15262;DHT22;7733;51.554;13.590;2024-01-06T12:47:32;2.80;99.90
15262;DHT22;7733;51.554;13.590;2024-01-06T12:49:59;2.80;99.90
15262;DHT22;7733;51.554;13.590;2024-01-06T12:52:25;2.80;99.90
15262;DHT22;7733;51.554;13.590;2024-01-06T12:54:50;2.90;99.90
15262;DHT22;7733;51.554;13.590;2024-01-06T12:57:16;2.80;99.90
15262;DHT22;7733;51.554;13.590;2024-01-06T12:59:42;2.90;99.90
15262;DHT22;7733;51.554;13.590;2024-01-06T13:02:08;2.70;99.90
15262;DHT22;7733;51.554;13.590;2024-01-06T13:04:34;2.70;99.90
15262;DHT22;7733;51.554;13.590;2024-01-06T13:07:00;2.80;99.90
15262;DHT22;7733;51.554;13.590;2024-01-06T13:09:27;2.80;99.90
15262;DHT22;7733;51.554;13.590;2024-01-06T13:11:53;2.80;99.90
15262;DHT22;7733;51.554;13.590;2024-01-06T13:14:21;2.80;99.90
15262;DHT22;7733;51.554;13.590;2024-01-06T13:16:47;2.80;99.90
15262;DHT22;7733;51.554;13.590;2024-01-06T13:19:13;2.80;99.90
15262;DHT22;7733;51.554;13.590;2024-01-06T13:21:38;2.80;99.90
15262;DHT22;7733;51.554;13.590;2024-01-06T13:24:06;2.80;99.90
15262;DHT22;7733;51.554;13.590;2024-01-06T13:26:32;2.80;99.90
15262;DHT22;7733;51.554;13.590;2024-01-06T13:28:58;2.90;99.90
15262;DHT22;7733;51.554;13.590;2024-01-06T13:31:24;2.90;99.90
15262;DHT22;7733;51.554;13.590;2024-01-06T13:33:50;2.80;99.90
15262;DHT22;7733;51.554;13.590;2024-01-06T13:36:19;2.70;99.90
15262;DHT22;7733;51.554;13.590;2024-01-06T13:38:45;2.80;99.90
15262;DHT22;7733;51.554;13.590;2024-01-06T13:41:12;2.90;99.90
15262;DHT22;7733;51.554;13.590;2024-01-06T13:43:37;2.90;99.90
15262;DHT22;7733;51.554;13.590;2024-01-06T13:46:03;3.00;99.90
15262;DHT22;7733;51.554;13.590;2024-01-06T13:48:29;3.10;99.90
15262;DHT22;7733;51.554;13.590;2024-01-06T13:50:55;3.00;99.90
15262;DHT22;7733;51.554;13.590;2024-01-06T13:53:21;3.00;99.90
15262;DHT22;7733;51.554;13.590;2024-01-06T13:55:47;3.00;99.90
15262;DHT22;7733;51.554;13.590;2024-01-06T13:58:13;3.00;99.90
15262;DHT22;7733;51.554;13.590;2024-01-06T14:00:39;2.90;99.90
15262;DHT22;7733;51.554;13.590;2024-01-06T14:03:05;2.90;99.90
15262;DHT22;7733;51.554;13.590;2024-01-06T14:05:32;2.90;99.90
15262;DHT22;7733;51.554;13.590;2024-01-06T14:07:58;2.90;99.90
15262;DHT22;7733;51.554;13.590;2024-01-06T14:10:24;2.90;99.90
15262;DHT22;7733;51.554;13.590;2024-01-06T14:12:50;2.70;99.90
15262;DHT22;7733;51.554;13.590;2024-01-06T14:15:16;2.70;99.90
15262;DHT22;7733;51.554;13.590;2024-01-06T14:17:41;2.90;99.90
15262;DHT22;7733;51.554;13.590;2024-01-06T14:20:09;2.80;99.90
15262;DHT22;7733;51.554;13.590;2024-01-06T14:22:38;2.70;99.90
15262;DHT22;7733;51.554;13.590;2024-01-06T14:25:04;2.70;99.90
15262;DHT22;7733;51.554;13.590;2024-01-06T14:27:31;2.60;99.90
15262;DHT22;7733;51.554;13.590;2024-01-06T14:29:57;2.60;99.90
15262;DHT22;7733;51.554;13.590;2024-01-06T14:32:23;2.60;99.90
15262;DHT22;7733;51.554;13.590;2024-01-06T14:34:50;2.70;99.90
15262;DHT22;7733;51.554;13.590;2024-01-06T14:37:16;2.70;99.90
15262;DHT22;7733;51.554;13.590;2024-01-06T14:39:42;2.60;99.90
15262;DHT22;7733;51.554;13.590;2024-01-06T14:42:08;2.70;99.90
15262;DHT22;7733;51.554;13.590;2024-01-06T14:44:35;2.60;99.90
15262;DHT22;7733;51.554;13.590;2024-01-06T14:47:01;2.60;99.90
15262;DHT22;7733;51.554;13.590;2024-01-06T14:49:26;2.60;99.90
15262;DHT22;7733;51.554;13.590;2024-01-06T14:51:52;2.70;99.90
15262;DHT22;7733;51.554;13.590;2024-01-06T14:54:18;2.60;99.90
15262;DHT22;7733;51.554;13.590;2024-01-06T14:56:43;2.60;99.90
15262;DHT22;7733;51.554;13.590;2024-01-06T14:59:09;2.60;99.90
15262;DHT22;7733;51.554;13.590;2024-01-06T15:01:35;2.50;99.90
15262;DHT22;7733;51.554;13.590;2024-01-06T15:04:01;2.50;99.90
15262;DHT22;7733;51.554;13.590;2024-01-06T15:06:26;2.40;99.90
15262;DHT22;7733;51.554;13.590;2024-01-06T15:08:52;2.40;99.90
15262;DHT22;7733;51.554;13.590;2024-01-06T15:11:19;2.50;99.90
15262;DHT22;7733;51.554;13.590;2024-01-06T15:13:45;2.40;99.90
15262;DHT22;7733;51.554;13.590;2024-01-06T15:16:11;2.40;99.90
15262;DHT22;7733;51.554;13.590;2024-01-06T15:18:36;2.40;99.90
15262;DHT22;7733;51.554;13.590;2024-01-06T15:21:02;2.40;99.90
15262;DHT22;7733;51.554;13.590;2024-01-06T15:23:28;2.40;99.90
15262;DHT22;7733;51.554;13.590;2024-01-06T15:25:54;2.40;99.90
15262;DHT22;7733;51.554;13.590;2024-01-06T15:28:20;2.40;99.90
15262;DHT22;7733;51.554;13.590;2024-01-06T15:30:46;2.40;99.90
15262;DHT22;7733;51.554;13.590;2024-01-06T15:33:12;2.40;99.90
15262;DHT22;7733;51.554;13.590;2024-01-06T15:35:39;2.50;99.90
15262;DHT22;7733;51.554;13.590;2024-01-06T15:38:05;2.40;99.90
15262;DHT22;7733;51.554;13.590;2024-01-06T15:40:31;2.50;99.90
15262;DHT22;7733;51.554;13.590;2024-01-06T15:42:57;2.50;99.90
15262;DHT22;7733;51.554;13.590;2024-01-06T15:45:23;2.50;99.90
15262;DHT22;7733;51.554;13.590;2024-01-06T15:47:49;2.50;99.90
15262;DHT22;7733;51.554;13.590;2024-01-06T15:50:15;2.50;99.90